Baie Verte, Canada
Current Conditions -  °F | °C
As of 8:00 AM on Saturday 25 Oct 2014 (Local Time) from CWDH Reporting Station
Scattered Clouds Scattered Clouds  
Wind Chill: 29°   Ceiling: Unl
Heat Index: 38°   Visibility: 9mi
Dew Point: 32°   Wind: 18mph
Humidity: 79%   Direction: 60°ENE
Pressure: 29.64"   Gusts: 25mph
Location:  49.92°N, 56.18°W
Report Text: CWDH 251000Z AUTO 06016G22KT 9SM SCT024 04/00 A2964 RMK SLP039 PK WND 05022/// T00360002 P0002 70002 WSI/SWOB
Loading
Personal Weather Stations






























Interactive Weather Map
Tropical Storm Tracking
New forecast layout! Learn more

10-Day Weather Forecast

Advertisements
Track Severe Weather on mobile